createdAt,value
2018-11-27T00:01:09.474Z,0.14
2018-11-27T00:03:43.035Z,0.19
2018-11-27T00:06:10.914Z,0.18
2018-11-27T00:08:38.684Z,0.19
2018-11-27T00:11:06.173Z,0.22
2018-11-27T00:13:33.585Z,0.18
2018-11-27T00:16:00.977Z,0.25
2018-11-27T00:18:28.395Z,0.25
2018-11-27T00:20:55.786Z,0.26
2018-11-27T00:23:23.225Z,0.35
2018-11-27T00:25:50.625Z,0.39
2018-11-27T00:28:18.040Z,0.48
2018-11-27T00:30:45.478Z,0.50
2018-11-27T00:33:13.637Z,0.57
2018-11-27T00:35:41.086Z,0.57
2018-11-27T00:38:08.512Z,0.52
2018-11-27T00:40:36.040Z,0.55
2018-11-27T00:43:04.502Z,0.45
2018-11-27T00:45:31.956Z,0.40
2018-11-27T00:47:59.357Z,0.45
2018-11-27T00:50:26.699Z,0.54
2018-11-27T00:52:54.300Z,0.60
2018-11-27T00:55:22.026Z,0.62
2018-11-27T00:57:50.382Z,0.63
2018-11-27T01:00:20.032Z,0.66
2018-11-27T01:02:48.248Z,0.67
2018-11-27T01:05:16.919Z,0.67
2018-11-27T01:07:45.941Z,0.61
2018-11-27T01:10:17.430Z,0.56
2018-11-27T01:12:44.932Z,0.50
2018-11-27T01:15:13.156Z,0.45
2018-11-27T01:17:44.888Z,0.43
2018-11-27T01:20:20.117Z,0.40
2018-11-27T01:22:47.672Z,0.35
2018-11-27T01:25:15.139Z,0.40
2018-11-27T01:27:43.198Z,0.51
2018-11-27T01:30:14.655Z,0.54
2018-11-27T01:32:42.234Z,0.54
2018-11-27T01:35:12.002Z,0.49
2018-11-27T01:37:39.436Z,0.44
2018-11-27T01:40:17.326Z,0.48
2018-11-27T01:42:45.614Z,0.51
2018-11-27T01:45:14.134Z,0.50
2018-11-27T01:47:41.561Z,0.54
2018-11-27T01:50:11.886Z,0.60
2018-11-27T01:52:39.326Z,0.60
2018-11-27T01:55:09.480Z,0.58
2018-11-27T01:57:37.090Z,0.58
2018-11-27T02:00:07.620Z,0.61
2018-11-27T02:02:34.997Z,0.59
2018-11-27T02:05:02.497Z,0.53
2018-11-27T02:07:29.859Z,0.52
2018-11-27T02:09:57.292Z,0.49
2018-11-27T02:12:24.748Z,0.50
2018-11-27T02:14:52.164Z,0.54
2018-11-27T02:17:19.548Z,0.59
2018-11-27T02:19:46.902Z,0.61
2018-11-27T02:22:14.347Z,0.56
2018-11-27T02:24:41.716Z,0.53
2018-11-27T02:27:09.102Z,0.49
2018-11-27T02:29:36.501Z,0.52
2018-11-27T02:32:03.968Z,0.47
2018-11-27T02:34:31.356Z,0.52
2018-11-27T02:36:58.787Z,0.51
2018-11-27T02:39:26.249Z,0.48
2018-11-27T02:41:53.702Z,0.50
2018-11-27T02:44:21.312Z,0.51
2018-11-27T02:46:48.766Z,0.48
2018-11-27T02:49:16.157Z,0.42
2018-11-27T02:51:44.278Z,0.35
2018-11-27T02:54:11.703Z,0.32
2018-11-27T02:56:39.141Z,0.30
2018-11-27T02:59:06.533Z,0.29
2018-11-27T03:01:33.996Z,0.33
2018-11-27T03:04:01.402Z,0.30
2018-11-27T03:06:28.801Z,0.28
2018-11-27T03:08:56.236Z,0.29
2018-11-27T03:11:25.133Z,0.28
2018-11-27T03:13:52.586Z,0.30
2018-11-27T03:16:20.005Z,0.31
2018-11-27T03:18:47.416Z,0.29
2018-11-27T03:21:14.826Z,0.30
2018-11-27T03:23:42.236Z,0.30
2018-11-27T03:26:10.202Z,0.30
2018-11-27T03:28:37.652Z,0.38
2018-11-27T03:31:05.093Z,0.34
2018-11-27T03:33:32.477Z,0.32
2018-11-27T03:35:59.936Z,0.37
2018-11-27T03:38:27.403Z,0.35
2018-11-27T03:40:54.797Z,0.34
2018-11-27T03:43:22.187Z,0.33
2018-11-27T03:45:50.531Z,0.32
2018-11-27T03:48:17.926Z,0.30
2018-11-27T03:50:45.330Z,0.27
2018-11-27T03:53:12.721Z,0.37
2018-11-27T03:55:40.164Z,0.46
2018-11-27T03:58:07.559Z,0.42
2018-11-27T04:00:35.004Z,0.32
2018-11-27T04:03:05.509Z,0.25
2018-11-27T04:05:32.948Z,0.30
2018-11-27T04:08:00.312Z,0.25
2018-11-27T04:10:29.064Z,0.28
2018-11-27T04:12:56.476Z,0.29
2018-11-27T04:15:23.909Z,0.23
2018-11-27T04:17:51.408Z,0.34
2018-11-27T04:20:18.919Z,0.30
2018-11-27T04:22:46.359Z,0.27
2018-11-27T04:25:15.048Z,0.31
2018-11-27T04:27:43.088Z,0.27
2018-11-27T04:30:11.936Z,0.34
2018-11-27T04:32:39.348Z,0.31
2018-11-27T04:35:07.672Z,0.29
2018-11-27T04:37:35.134Z,0.28
2018-11-27T04:40:02.605Z,0.35
2018-11-27T04:42:30.014Z,0.33
2018-11-27T04:44:57.458Z,0.34
2018-11-27T04:47:25.737Z,0.32
2018-11-27T04:49:53.134Z,0.25
2018-11-27T04:52:20.612Z,0.22
2018-11-27T04:54:48.024Z,0.22
2018-11-27T04:57:16.409Z,0.22
2018-11-27T04:59:44.562Z,0.30
2018-11-27T05:02:12.042Z,0.34
2018-11-27T05:04:39.560Z,0.36
2018-11-27T05:07:07.040Z,0.36
2018-11-27T05:09:35.049Z,0.30
2018-11-27T05:12:02.451Z,0.35
2018-11-27T05:14:30.679Z,0.33
2018-11-27T05:16:58.068Z,0.33
2018-11-27T05:19:25.507Z,0.35
2018-11-27T05:21:52.928Z,0.35
2018-11-27T05:24:20.324Z,0.32
2018-11-27T05:26:48.291Z,0.33
2018-11-27T05:29:15.816Z,0.41
2018-11-27T05:31:43.605Z,0.27
2018-11-27T05:34:11.006Z,0.32
2018-11-27T05:36:38.460Z,0.28
2018-11-27T05:39:08.260Z,0.18
2018-11-27T05:41:35.889Z,0.14
2018-11-27T05:44:04.427Z,0.20
2018-11-27T05:46:32.362Z,0.21
2018-11-27T05:48:59.909Z,0.21
2018-11-27T05:51:27.318Z,0.21
2018-11-27T05:53:54.728Z,0.32
2018-11-27T05:56:22.184Z,0.22
2018-11-27T05:58:49.571Z,0.28
2018-11-27T06:01:17.544Z,0.29
2018-11-27T06:03:45.002Z,0.27
2018-11-27T06:06:12.452Z,0.23
2018-11-27T06:08:40.571Z,0.28
2018-11-27T06:11:08.636Z,0.27
2018-11-27T06:13:36.126Z,0.23
2018-11-27T06:16:03.644Z,0.20
2018-11-27T06:18:31.049Z,0.21
2018-11-27T06:20:58.477Z,0.24
2018-11-27T06:23:25.897Z,0.21
2018-11-27T06:25:53.489Z,0.24
2018-11-27T06:28:20.947Z,0.19
2018-11-27T06:30:48.370Z,0.23
2018-11-27T06:33:15.808Z,0.33
2018-11-27T06:35:43.647Z,0.23
2018-11-27T06:38:11.459Z,0.33
2018-11-27T06:40:39.887Z,0.23
2018-11-27T06:43:08.678Z,0.16
2018-11-27T06:45:36.988Z,0.17
2018-11-27T06:48:04.464Z,0.19
2018-11-27T06:50:32.138Z,0.23
2018-11-27T06:53:00.369Z,0.23
2018-11-27T06:55:27.757Z,0.25
2018-11-27T06:57:55.211Z,0.36
2018-11-27T07:00:25.033Z,0.43
2018-11-27T07:02:52.898Z,0.46
2018-11-27T07:05:20.444Z,0.43
2018-11-27T07:07:47.874Z,0.48
2018-11-27T07:10:19.456Z,0.49
2018-11-27T07:12:48.256Z,0.51
2018-11-27T07:15:19.027Z,0.53
2018-11-27T07:17:46.526Z,0.46
2018-11-27T07:20:14.089Z,0.51
2018-11-27T07:22:41.594Z,0.54
2018-11-27T07:25:11.518Z,0.55
2018-11-27T07:27:39.091Z,0.56
2018-11-27T07:30:09.952Z,0.59
2018-11-27T07:32:37.441Z,0.64
2018-11-27T07:35:06.387Z,0.56
2018-11-27T07:37:33.923Z,0.57
2018-11-27T07:40:03.343Z,0.59
2018-11-27T07:42:29.662Z,0.60
2018-11-27T07:44:57.136Z,0.63
2018-11-27T07:47:24.498Z,0.58
2018-11-27T07:49:51.948Z,0.64
2018-11-27T07:52:19.877Z,0.57
2018-11-27T07:54:47.316Z,0.54
2018-11-27T07:57:14.727Z,0.53
2018-11-27T07:59:43.135Z,0.55
2018-11-27T08:02:10.558Z,0.58
2018-11-27T08:04:38.009Z,0.63
2018-11-27T08:07:06.299Z,0.65
2018-11-27T08:09:33.860Z,0.64
2018-11-27T08:12:01.413Z,0.68
2018-11-27T08:14:28.868Z,0.74
2018-11-27T08:16:56.272Z,0.68
2018-11-27T08:19:24.647Z,0.67
2018-11-27T08:21:52.148Z,0.64
2018-11-27T08:24:19.582Z,0.68
2018-11-27T08:26:47.678Z,0.62
2018-11-27T08:29:15.092Z,0.62
2018-11-27T08:31:42.537Z,0.63
2018-11-27T08:34:09.973Z,0.63
2018-11-27T08:36:37.363Z,0.66
2018-11-27T08:39:07.837Z,0.67
2018-11-27T08:41:40.236Z,0.70
2018-11-27T08:44:02.802Z,0.78
2018-11-27T08:46:31.038Z,0.81
2018-11-27T08:48:58.447Z,0.84
2018-11-27T08:51:25.947Z,0.82
2018-11-27T08:53:53.366Z,0.83
2018-11-27T08:56:20.830Z,0.83
2018-11-27T08:58:48.304Z,0.88
2018-11-27T09:01:16.247Z,0.91
2018-11-27T09:03:46.475Z,0.96
2018-11-27T09:06:11.125Z,0.90
2018-11-27T09:08:38.497Z,0.96
2018-11-27T09:11:05.984Z,0.98
2018-11-27T09:13:33.378Z,1.02
2018-11-27T09:16:00.777Z,1.05
2018-11-27T09:18:28.198Z,1.02
2018-11-27T09:20:55.612Z,1.05
2018-11-27T09:23:23.038Z,1.08
2018-11-27T09:25:50.568Z,1.11
2018-11-27T09:28:18.019Z,1.13
2018-11-27T09:30:45.503Z,1.23
2018-11-27T09:33:12.928Z,1.19
2018-11-27T09:35:40.353Z,1.23
2018-11-27T09:38:08.039Z,1.22
2018-11-27T09:40:35.595Z,1.30
2018-11-27T09:43:03.064Z,1.22
2018-11-27T09:45:30.668Z,1.31
2018-11-27T09:47:58.587Z,1.27
2018-11-27T09:50:26.029Z,1.25
2018-11-27T09:52:53.614Z,1.16
2018-11-27T09:55:23.205Z,1.22
2018-11-27T09:57:50.556Z,1.23
2018-11-27T10:00:22.908Z,1.21
2018-11-27T10:02:51.365Z,1.15
2018-11-27T10:05:18.819Z,1.16
2018-11-27T10:07:46.276Z,1.14
2018-11-27T10:10:15.201Z,1.24
2018-11-27T10:12:42.660Z,1.29
2018-11-27T10:15:12.669Z,1.36
2018-11-27T10:17:40.071Z,1.45
2018-11-27T10:20:09.690Z,1.51
2018-11-27T10:22:37.092Z,1.48
2018-11-27T10:25:05.782Z,1.54
2018-11-27T10:27:33.159Z,1.56
2018-11-27T10:30:00.590Z,1.46
2018-11-27T10:32:28.109Z,1.49
2018-11-27T10:34:55.599Z,1.45
2018-11-27T10:37:23.604Z,1.58
2018-11-27T10:39:51.169Z,1.53
2018-11-27T10:42:18.564Z,1.49
2018-11-27T10:44:46.011Z,1.48
2018-11-27T10:47:13.560Z,1.51
2018-11-27T10:49:40.951Z,1.54
2018-11-27T10:52:08.394Z,1.54
2018-11-27T10:54:35.816Z,1.52
2018-11-27T10:57:03.225Z,1.51
2018-11-27T10:59:30.609Z,1.50
2018-11-27T11:02:03.739Z,1.53
2018-11-27T11:04:31.149Z,1.48
2018-11-27T11:06:58.565Z,1.46
2018-11-27T11:09:25.961Z,1.36
2018-11-27T11:11:53.384Z,1.31
2018-11-27T11:14:20.883Z,1.34
2018-11-27T11:16:48.270Z,1.32
2018-11-27T11:19:18.381Z,1.25
2018-11-27T11:21:43.178Z,1.26
2018-11-27T11:24:10.619Z,1.29
2018-11-27T11:26:38.009Z,1.25
2018-11-27T11:29:05.770Z,1.21
2018-11-27T11:31:33.194Z,1.28
2018-11-27T11:34:00.658Z,1.22
2018-11-27T11:36:28.086Z,1.17
2018-11-27T11:38:55.509Z,1.04
2018-11-27T11:41:22.890Z,1.06
2018-11-27T11:43:50.310Z,0.97
2018-11-27T11:46:17.718Z,1.01
2018-11-27T11:48:45.135Z,0.96
2018-11-27T11:51:12.543Z,1.02
2018-11-27T11:53:40.003Z,1.06
2018-11-27T11:56:08.235Z,1.10
2018-11-27T11:58:35.622Z,1.13
2018-11-27T12:01:03.097Z,1.24
2018-11-27T12:03:30.529Z,1.27
2018-11-27T12:07:22.413Z,1.29
2018-11-27T12:09:49.878Z,1.32
2018-11-27T12:12:18.178Z,1.32
2018-11-27T12:14:45.634Z,1.23
2018-11-27T12:17:13.110Z,1.26
2018-11-27T12:19:40.514Z,1.28
2018-11-27T12:22:08.921Z,1.21
2018-11-27T12:24:36.499Z,1.22
2018-11-27T12:27:04.219Z,1.23
2018-11-27T12:29:31.662Z,1.29
2018-11-27T12:31:59.884Z,1.44
2018-11-27T12:34:28.197Z,1.34
2018-11-27T12:36:55.657Z,1.28
2018-11-27T12:39:23.031Z,1.25
2018-11-27T12:41:50.649Z,1.26
2018-11-27T12:44:18.229Z,1.28
2018-11-27T12:46:45.690Z,1.30
2018-11-27T12:49:13.096Z,1.41
2018-11-27T12:51:40.678Z,1.47
2018-11-27T12:54:08.140Z,1.38
2018-11-27T12:56:35.708Z,1.40
2018-11-27T12:59:03.160Z,1.35
2018-11-27T13:01:30.644Z,1.37
2018-11-27T13:03:58.087Z,1.42
2018-11-27T13:06:27.785Z,1.41
2018-11-27T13:08:53.039Z,1.44
2018-11-27T13:11:20.435Z,1.39
2018-11-27T13:13:47.921Z,1.38
2018-11-27T13:16:15.331Z,1.40
2018-11-27T13:18:42.721Z,1.35
2018-11-27T13:21:10.361Z,1.35
2018-11-27T13:23:37.812Z,1.32
2018-11-27T13:26:05.529Z,1.34
2018-11-27T13:28:33.004Z,1.29
2018-11-27T13:31:03.095Z,1.33
2018-11-27T13:33:34.350Z,1.34
2018-11-27T13:36:01.739Z,1.33
2018-11-27T13:38:29.137Z,1.30
2018-11-27T13:40:56.597Z,1.23
2018-11-27T13:43:27.149Z,1.16
2018-11-27T13:45:55.679Z,1.14
2018-11-27T13:48:23.165Z,1.10
2018-11-27T13:50:50.584Z,1.13
2018-11-27T13:53:18.060Z,1.19
2018-11-27T13:55:45.465Z,1.09
2018-11-27T13:58:12.845Z,1.07
2018-11-27T14:00:40.245Z,1.02
2018-11-27T14:03:10.789Z,1.01
2018-11-27T14:05:35.275Z,1.05
2018-11-27T14:08:02.731Z,0.96
2018-11-27T14:10:30.141Z,0.92
2018-11-27T14:12:57.625Z,0.90
2018-11-27T14:15:25.396Z,0.91
2018-11-27T14:17:54.016Z,0.92
2018-11-27T14:20:21.445Z,1.11
2018-11-27T14:22:49.591Z,1.21
2018-11-27T14:25:17.038Z,1.27
2018-11-27T14:27:44.880Z,1.30
2018-11-27T14:30:17.595Z,1.19
2018-11-27T14:32:45.223Z,1.12
2018-11-27T14:35:13.401Z,1.01
2018-11-27T14:37:40.854Z,0.93
2018-11-27T14:40:15.825Z,0.87
2018-11-27T14:42:43.455Z,0.89
2018-11-27T14:45:15.818Z,0.91
2018-11-27T14:47:43.998Z,0.84
2018-11-27T14:50:11.868Z,0.77
2018-11-27T14:52:39.314Z,0.76
2018-11-27T14:55:14.142Z,0.77
2018-11-27T14:57:41.529Z,0.73
2018-11-27T15:00:10.890Z,0.70
2018-11-27T15:02:38.303Z,0.72
2018-11-27T15:05:08.430Z,0.78
2018-11-27T15:07:35.809Z,0.76
2018-11-27T15:10:03.816Z,0.81
2018-11-27T15:12:31.225Z,0.84
2018-11-27T15:14:58.676Z,0.95
2018-11-27T15:17:26.157Z,0.89
2018-11-27T15:19:53.696Z,0.90
2018-11-27T15:22:21.100Z,0.81
2018-11-27T15:24:48.557Z,0.69
2018-11-27T15:27:16.042Z,0.63
2018-11-27T15:29:43.446Z,0.56
2018-11-27T15:32:10.972Z,0.49
2018-11-27T15:34:38.388Z,0.45
2018-11-27T15:37:06.071Z,0.43
2018-11-27T15:39:33.545Z,0.37
2018-11-27T15:42:01.021Z,0.32
2018-11-27T15:44:28.451Z,0.25
2018-11-27T15:46:55.970Z,0.19
2018-11-27T15:49:23.473Z,0.23
2018-11-27T15:51:51.723Z,0.21
2018-11-27T15:54:19.124Z,0.23
2018-11-27T15:56:46.706Z,0.25
2018-11-27T15:59:14.772Z,0.23
2018-11-27T16:01:42.261Z,0.22
2018-11-27T16:04:09.773Z,0.18
2018-11-27T16:06:37.281Z,0.19
2018-11-27T16:09:08.872Z,0.18
2018-11-27T16:11:37.592Z,0.27
2018-11-27T16:14:06.363Z,0.34
2018-11-27T16:16:33.860Z,0.40
2018-11-27T16:19:02.057Z,0.36
2018-11-27T16:21:29.433Z,0.38
2018-11-27T16:23:56.974Z,0.39
2018-11-27T16:26:25.160Z,0.36
2018-11-27T16:28:52.624Z,0.34
2018-11-27T16:31:20.652Z,0.30
2018-11-27T16:33:48.151Z,0.26
2018-11-27T16:36:15.703Z,0.24
2018-11-27T16:38:43.197Z,0.20
2018-11-27T16:41:10.623Z,0.21
2018-11-27T16:43:38.223Z,0.25
2018-11-27T16:46:05.813Z,0.25
2018-11-27T16:48:33.273Z,0.21
2018-11-27T16:51:00.832Z,0.21
2018-11-27T16:53:28.487Z,0.23
2018-11-27T16:55:56.056Z,0.19
2018-11-27T16:58:23.658Z,0.16
2018-11-27T17:00:51.758Z,0.13
2018-11-27T17:03:19.141Z,0.12
2018-11-27T17:05:46.526Z,0.10
2018-11-27T17:08:13.983Z,0.12
2018-11-27T17:10:43.378Z,0.16
2018-11-27T17:13:11.869Z,0.17
2018-11-27T17:15:39.361Z,0.20
2018-11-27T17:18:08.477Z,0.23
2018-11-27T17:20:37.579Z,0.25
2018-11-27T17:23:07.707Z,0.21
2018-11-27T17:25:35.106Z,0.21
2018-11-27T17:28:08.131Z,0.19
2018-11-27T17:30:42.219Z,0.19
2018-11-27T17:33:18.526Z,0.17
2018-11-27T17:35:46.517Z,0.16
2018-11-27T17:38:14.063Z,0.19
2018-11-27T17:40:42.243Z,0.20
2018-11-27T17:43:09.771Z,0.22
2018-11-27T17:45:37.359Z,0.23
2018-11-27T17:48:05.454Z,0.22
2018-11-27T17:50:32.994Z,0.24
2018-11-27T17:53:00.460Z,0.25
2018-11-27T17:55:27.908Z,0.25
2018-11-27T17:57:55.387Z,0.27
2018-11-27T18:00:24.677Z,0.25
2018-11-27T18:02:54.368Z,0.23
2018-11-27T18:05:21.967Z,0.20
2018-11-27T18:07:50.143Z,0.17
2018-11-27T18:10:17.707Z,0.16
2018-11-27T18:12:45.283Z,0.16
2018-11-27T18:15:14.224Z,0.15
2018-11-27T18:17:41.712Z,0.19
2018-11-27T18:20:10.482Z,0.25
2018-11-27T18:22:38.618Z,0.22
2018-11-27T18:25:08.298Z,0.21
2018-11-27T18:27:35.734Z,0.22
2018-11-27T18:30:04.723Z,0.18
2018-11-27T18:32:32.285Z,0.19
2018-11-27T18:34:59.726Z,0.35
2018-11-27T18:37:27.284Z,0.28
2018-11-27T18:39:54.708Z,0.20
2018-11-27T18:42:22.910Z,0.14
2018-11-27T18:44:50.512Z,0.14
2018-11-27T18:47:18.497Z,0.11
2018-11-27T18:49:46.788Z,0.09
2018-11-27T18:52:15.174Z,0.07
2018-11-27T18:54:42.607Z,0.10
2018-11-27T18:57:10.687Z,0.15
2018-11-27T18:59:38.788Z,0.25
2018-11-27T19:02:06.534Z,0.27
2018-11-27T19:04:34.112Z,0.27
2018-11-27T19:07:02.923Z,0.18
2018-11-27T19:09:30.475Z,0.14
2018-11-27T19:11:58.717Z,0.09
2018-11-27T19:14:26.263Z,0.06
2018-11-27T19:16:54.139Z,0.04
2018-11-27T19:19:21.675Z,0.03
2018-11-27T19:21:49.388Z,0.03
2018-11-27T19:24:16.965Z,0.03
2018-11-27T19:26:44.524Z,0.01
2018-11-27T19:29:12.048Z,0.01
2018-11-27T19:31:40.389Z,0.01
2018-11-27T19:34:08.066Z,0.03
2018-11-27T19:36:35.644Z,0.02
2018-11-27T19:39:03.903Z,0.11
2018-11-27T19:41:31.382Z,0.06
2018-11-27T19:43:58.903Z,0.01
2018-11-27T19:48:53.298Z,-0.01
2018-11-27T19:51:14.788Z,-0.02
2018-11-27T19:53:42.208Z,-0.04
2018-11-27T19:56:09.944Z,-0.01
2018-11-27T19:58:37.384Z,0.07
2018-11-27T20:01:06.550Z,0.06
2018-11-27T20:03:34.082Z,0.07
2018-11-27T20:06:02.310Z,0.05
2018-11-27T20:08:29.874Z,0.03
2018-11-27T20:10:57.344Z,0.04
2018-11-27T20:13:24.862Z,0.06
2018-11-27T20:15:52.482Z,0.06
2018-11-27T20:18:19.994Z,0.07
2018-11-27T20:20:47.496Z,0.08
2018-11-27T20:23:15.044Z,0.08
2018-11-27T20:25:42.983Z,0.07
2018-11-27T20:28:10.450Z,0.06
2018-11-27T20:30:39.503Z,0.09
2018-11-27T20:33:07.045Z,0.09
2018-11-27T20:35:34.609Z,0.12
2018-11-27T20:38:04.359Z,0.06
2018-11-27T20:40:32.019Z,0.03
2018-11-27T20:42:59.675Z,0.03
2018-11-27T20:45:27.484Z,0.07
2018-11-27T20:47:58.699Z,0.07
2018-11-27T20:50:26.285Z,0.04
2018-11-27T20:52:54.369Z,0.03
2018-11-27T20:55:22.144Z,0.03
2018-11-27T20:57:52.285Z,0.02
2018-11-27T21:00:23.001Z,0.03
2018-11-27T21:02:51.783Z,0.05
2018-11-27T21:05:19.376Z,0.07
2018-11-27T21:07:47.638Z,0.08
2018-11-27T21:10:15.073Z,0.08
2018-11-27T21:12:43.388Z,0.08
2018-11-27T21:15:13.932Z,0.09
2018-11-27T21:17:41.427Z,0.09
2018-11-27T21:20:11.017Z,0.08
2018-11-27T21:22:38.499Z,0.07
2018-11-27T21:25:08.763Z,0.12
2018-11-27T21:27:36.209Z,0.18
2018-11-27T21:30:07.419Z,0.18
2018-11-27T21:32:34.953Z,0.20
2018-11-27T21:35:03.094Z,0.23
2018-11-27T21:37:30.700Z,0.16
2018-11-27T21:39:58.509Z,0.11
2018-11-27T21:42:26.029Z,0.05
2018-11-27T21:44:53.630Z,0.02
2018-11-27T21:47:21.129Z,-0.01
2018-11-27T21:49:49.220Z,0.04
2018-11-27T21:52:16.927Z,0.16
2018-11-27T21:54:44.567Z,0.33
2018-11-27T21:57:12.128Z,0.25
2018-11-27T21:59:39.858Z,0.16
2018-11-27T22:02:07.482Z,0.09
2018-11-27T22:04:34.910Z,0.06
2018-11-27T22:07:03.031Z,0.05
2018-11-27T22:09:30.857Z,0.04
2018-11-27T22:11:58.493Z,0.17
2018-11-27T22:14:26.186Z,0.25
2018-11-27T22:16:54.212Z,0.42
2018-11-27T22:19:21.788Z,0.42
2018-11-27T22:21:49.858Z,0.49
2018-11-27T22:24:17.309Z,0.41
2018-11-27T22:26:45.522Z,0.44
2018-11-27T22:29:12.946Z,0.67
2018-11-27T22:31:40.608Z,0.63
2018-11-27T22:34:11.693Z,0.51
2018-11-27T22:36:39.324Z,0.55
2018-11-27T22:39:12.994Z,0.45
2018-11-27T22:41:41.493Z,0.30
2018-11-27T22:44:09.705Z,0.21
2018-11-27T22:46:37.428Z,0.21
2018-11-27T22:49:05.755Z,0.14
2018-11-27T22:51:33.747Z,0.10
2018-11-27T22:54:02.208Z,0.15
2018-11-27T22:56:29.612Z,0.13
2018-11-27T22:58:57.043Z,0.09
2018-11-27T23:01:24.456Z,0.07
2018-11-27T23:03:51.942Z,0.12
2018-11-27T23:06:20.052Z,0.24
2018-11-27T23:08:48.117Z,0.18
2018-11-27T23:11:15.566Z,0.17
2018-11-27T23:13:43.159Z,0.18
2018-11-27T23:16:10.558Z,0.29
2018-11-27T23:18:38.585Z,0.25
2018-11-27T23:21:06.065Z,0.26
2018-11-27T23:23:33.487Z,0.21
2018-11-27T23:26:00.938Z,0.19
2018-11-27T23:28:28.434Z,0.18
2018-11-27T23:30:55.975Z,0.20
2018-11-27T23:33:23.358Z,0.23
2018-11-27T23:35:51.518Z,0.18
2018-11-27T23:38:19.098Z,0.18
2018-11-27T23:40:46.544Z,0.25
2018-11-27T23:43:14.119Z,0.29
2018-11-27T23:45:41.585Z,0.29
2018-11-27T23:48:09.638Z,0.28
2018-11-27T23:50:37.129Z,0.33
2018-11-27T23:53:04.958Z,0.23
2018-11-27T23:55:32.353Z,0.22
2018-11-27T23:57:59.854Z,0.19
